Terminal Aerodrome Forecast
Issued by NWS Pueblo, CO

Home | Current Version | Previous Version | Text Only | Print | Product List | Glossary On
Versions: 1 2 3 4 5 6 7 8 9 10 11 12 13
000
FTUS45 KPUB 201748
TAFCOS
TAF
KCOS 201748Z 2018/2118 09006KT P6SM FEW120 SCT260 WS010/25025KT
     FM201900 22020G30KT P6SM SCT250
     FM210100 18012KT P6SM FEW120 BKN200
     FM211000 34013KT P6SM BKN120=

USA.gov is the U.S. government's official web portal to all federal, state and local government web resources and services.